sensor_id;sensor_type;location;lat;lon;timestamp;pressure;altitude;pressure_sealevel;temperature;humidity
39729;BME280;25402;42.004;23.088;2023-06-22T00:04:38;97733.13;;;16.17;49.96
39729;BME280;25402;42.004;23.088;2023-06-22T00:07:11;97739.25;;;16.12;50.21
39729;BME280;25402;42.004;23.088;2023-06-22T00:16:27;97720.28;;;15.79;50.58
39729;BME280;25402;42.004;23.088;2023-06-22T00:24:51;97727.81;;;15.77;50.32
39729;BME280;25402;42.004;23.088;2023-06-22T00:27:24;97751.50;;;15.90;50.36
39729;BME280;25402;42.004;23.088;2023-06-22T00:30:10;97723.22;;;15.71;50.73
39729;BME280;25402;42.004;23.088;2023-06-22T00:32:41;97748.81;;;15.83;50.76
39729;BME280;25402;42.004;23.088;2023-06-22T00:35:17;97745.03;;;15.78;50.58
39729;BME280;25402;42.004;23.088;2023-06-22T00:37:47;97719.03;;;15.69;50.26
39729;BME280;25402;42.004;23.088;2023-06-22T00:46:41;97741.06;;;15.67;50.30
39729;BME280;25402;42.004;23.088;2023-06-22T00:49:24;97739.16;;;15.61;50.51
39729;BME280;25402;42.004;23.088;2023-06-22T00:51:53;97713.44;;;15.37;51.10
39729;BME280;25402;42.004;23.088;2023-06-22T00:57:40;97706.09;;;15.38;51.33
39729;BME280;25402;42.004;23.088;2023-06-22T01:03:05;97730.00;;;15.36;51.27
39729;BME280;25402;42.004;23.088;2023-06-22T01:16:01;97747.44;;;15.21;51.79
39729;BME280;25402;42.004;23.088;2023-06-22T01:18:31;97733.81;;;15.08;52.00
39729;BME280;25402;42.004;23.088;2023-06-22T01:21:02;97737.16;;;15.04;52.37
39729;BME280;25402;42.004;23.088;2023-06-22T01:23:46;97727.91;;;14.98;52.54
39729;BME280;25402;42.004;23.088;2023-06-22T01:26:18;97748.03;;;14.97;52.85
39729;BME280;25402;42.004;23.088;2023-06-22T01:28:49;97726.63;;;14.81;53.23
39729;BME280;25402;42.004;23.088;2023-06-22T01:31:19;97738.38;;;14.81;53.14
39729;BME280;25402;42.004;23.088;2023-06-22T01:33:50;97739.66;;;14.79;53.36
39729;BME280;25402;42.004;23.088;2023-06-22T01:36:18;97752.00;;;14.88;53.16
39729;BME280;25402;42.004;23.088;2023-06-22T01:38:47;97752.22;;;14.86;53.14
39729;BME280;25402;42.004;23.088;2023-06-22T01:41:15;97748.88;;;14.78;53.16
39729;BME280;25402;42.004;23.088;2023-06-22T01:43:45;97759.53;;;14.86;53.34
39729;BME280;25402;42.004;23.088;2023-06-22T01:46:14;97750.13;;;14.88;52.86
39729;BME280;25402;42.004;23.088;2023-06-22T01:48:44;97756.81;;;14.86;52.86
39729;BME280;25402;42.004;23.088;2023-06-22T01:51:12;97750.53;;;14.85;53.00
39729;BME280;25402;42.004;23.088;2023-06-22T01:53:39;97739.03;;;14.77;53.05
39729;BME280;25402;42.004;23.088;2023-06-22T01:56:06;97732.09;;;14.68;52.94
39729;BME280;25402;42.004;23.088;2023-06-22T01:58:33;97723.72;;;14.63;53.05
39729;BME280;25402;42.004;23.088;2023-06-22T02:01:09;97755.78;;;14.74;53.11
39729;BME280;25402;42.004;23.088;2023-06-22T02:03:41;97756.41;;;14.63;53.17
39729;BME280;25402;42.004;23.088;2023-06-22T02:06:16;97690.72;;;14.18;52.87
39729;BME280;25402;42.004;23.088;2023-06-22T02:08:48;97699.75;;;14.25;52.84
39729;BME280;25402;42.004;23.088;2023-06-22T02:11:19;97693.03;;;14.14;52.49
39729;BME280;25402;42.004;23.088;2023-06-22T02:13:46;97745.22;;;14.38;52.12
39729;BME280;25402;42.004;23.088;2023-06-22T02:16:15;97795.31;;;14.56;52.44
39729;BME280;25402;42.004;23.088;2023-06-22T02:18:47;97732.16;;;14.13;52.43
39729;BME280;25402;42.004;23.088;2023-06-22T02:21:16;97749.13;;;14.15;52.58
39729;BME280;25402;42.004;23.088;2023-06-22T02:23:43;97767.13;;;14.23;52.42
39729;BME280;25402;42.004;23.088;2023-06-22T02:26:26;97796.97;;;14.44;52.31
39729;BME280;25402;42.004;23.088;2023-06-22T02:29:03;97804.66;;;14.34;52.52
39729;BME280;25402;42.004;23.088;2023-06-22T02:31:36;97804.19;;;14.24;52.75
39729;BME280;25402;42.004;23.088;2023-06-22T02:34:08;97784.22;;;14.04;52.98
39729;BME280;25402;42.004;23.088;2023-06-22T02:36:41;97741.88;;;13.81;52.82
39729;BME280;25402;42.004;23.088;2023-06-22T02:39:27;97699.00;;;13.49;53.05
39729;BME280;25402;42.004;23.088;2023-06-22T02:42:01;97781.69;;;13.96;53.19
39729;BME280;25402;42.004;23.088;2023-06-22T02:44:34;97765.28;;;13.82;53.12
39729;BME280;25402;42.004;23.088;2023-06-22T02:47:12;97793.41;;;14.03;53.38
39729;BME280;25402;42.004;23.088;2023-06-22T02:49:43;97712.50;;;13.64;53.24
39729;BME280;25402;42.004;23.088;2023-06-22T02:52:16;97749.00;;;13.89;52.71
39729;BME280;25402;42.004;23.088;2023-06-22T02:54:44;97787.56;;;14.06;52.76
39729;BME280;25402;42.004;23.088;2023-06-22T02:57:13;97780.44;;;14.05;52.90
39729;BME280;25402;42.004;23.088;2023-06-22T02:59:41;97808.34;;;14.20;52.77
39729;BME280;25402;42.004;23.088;2023-06-22T03:02:09;97801.22;;;14.19;52.74
39729;BME280;25402;42.004;23.088;2023-06-22T03:04:43;97706.22;;;13.63;52.59
39729;BME280;25402;42.004;23.088;2023-06-22T03:07:21;97769.13;;;14.01;52.54
39729;BME280;25402;42.004;23.088;2023-06-22T03:10:29;97809.91;;;14.29;52.49
39729;BME280;25402;42.004;23.088;2023-06-22T03:13:20;97811.31;;;14.25;52.58
39729;BME280;25402;42.004;23.088;2023-06-22T03:23:54;97704.97;;;13.66;52.65
39729;BME280;25402;42.004;23.088;2023-06-22T03:26:21;97791.16;;;14.13;52.00
39729;BME280;25402;42.004;23.088;2023-06-22T03:28:48;97819.94;;;14.35;51.79
39729;BME280;25402;42.004;23.088;2023-06-22T03:31:15;97828.94;;;14.36;51.94
39729;BME280;25402;42.004;23.088;2023-06-22T03:33:47;97805.75;;;14.40;51.67
39729;BME280;25402;42.004;23.088;2023-06-22T03:36:14;97820.31;;;15.00;50.93
39729;BME280;25402;42.004;23.088;2023-06-22T03:38:45;97817.47;;;15.41;50.19
39729;BME280;25402;42.004;23.088;2023-06-22T03:41:13;97834.59;;;16.01;48.51
39729;BME280;25402;42.004;23.088;2023-06-22T03:43:40;97834.66;;;16.39;47.39
39729;BME280;25402;42.004;23.088;2023-06-22T03:46:07;97832.19;;;16.82;45.61
39729;BME280;25402;42.004;23.088;2023-06-22T03:48:34;97845.81;;;17.20;45.08
39729;BME280;25402;42.004;23.088;2023-06-22T03:51:02;97829.38;;;17.51;44.44
39729;BME280;25402;42.004;23.088;2023-06-22T03:53:29;97835.25;;;17.98;43.39
39729;BME280;25402;42.004;23.088;2023-06-22T03:55:56;97851.88;;;18.39;42.64
39729;BME280;25402;42.004;23.088;2023-06-22T03:58:24;97852.19;;;18.98;41.88
39729;BME280;25402;42.004;23.088;2023-06-22T04:00:52;97857.69;;;19.39;41.07
39729;BME280;25402;42.004;23.088;2023-06-22T04:03:19;97866.59;;;19.76;40.25
39729;BME280;25402;42.004;23.088;2023-06-22T04:05:47;97866.81;;;20.22;39.38
39729;BME280;25402;42.004;23.088;2023-06-22T04:08:14;97869.16;;;20.65;38.48
39729;BME280;25402;42.004;23.088;2023-06-22T04:10:41;97871.22;;;20.98;37.50
39729;BME280;25402;42.004;23.088;2023-06-22T04:13:09;97875.19;;;21.19;37.13
39729;BME280;25402;42.004;23.088;2023-06-22T04:15:37;97876.91;;;21.36;36.81
39729;BME280;25402;42.004;23.088;2023-06-22T04:18:04;97849.69;;;21.52;36.41
39729;BME280;25402;42.004;23.088;2023-06-22T04:20:31;97867.28;;;21.67;36.01
39729;BME280;25402;42.004;23.088;2023-06-22T04:22:59;97879.53;;;21.93;35.81
39729;BME280;25402;42.004;23.088;2023-06-22T04:25:26;97884.91;;;22.16;35.45
39729;BME280;25402;42.004;23.088;2023-06-22T04:27:53;97880.91;;;22.46;35.17
39729;BME280;25402;42.004;23.088;2023-06-22T04:30:20;97874.13;;;22.75;34.98
39729;BME280;25402;42.004;23.088;2023-06-22T04:32:48;97882.97;;;22.99;34.66
39729;BME280;25402;42.004;23.088;2023-06-22T04:35:21;97885.38;;;23.39;33.87
39729;BME280;25402;42.004;23.088;2023-06-22T04:37:48;97886.28;;;23.77;32.96
39729;BME280;25402;42.004;23.088;2023-06-22T04:40:24;97883.78;;;24.12;32.58
39729;BME280;25402;42.004;23.088;2023-06-22T04:42:51;97862.97;;;24.37;32.03
39729;BME280;25402;42.004;23.088;2023-06-22T04:45:21;97878.88;;;24.67;31.84
39729;BME280;25402;42.004;23.088;2023-06-22T04:47:49;97852.63;;;24.74;31.48
39729;BME280;25402;42.004;23.088;2023-06-22T04:50:18;97885.09;;;24.94;30.97
39729;BME280;25402;42.004;23.088;2023-06-22T04:52:47;97882.91;;;25.06;30.74
39729;BME280;25402;42.004;23.088;2023-06-22T04:55:14;97882.63;;;24.98;30.30
39729;BME280;25402;42.004;23.088;2023-06-22T04:57:43;97899.78;;;25.05;30.57
39729;BME280;25402;42.004;23.088;2023-06-22T05:00:18;97893.16;;;25.06;30.38
39729;BME280;25402;42.004;23.088;2023-06-22T05:02:49;97876.56;;;25.06;29.86
39729;BME280;25402;42.004;23.088;2023-06-22T05:05:16;97879.44;;;25.31;29.57
39729;BME280;25402;42.004;23.088;2023-06-22T05:07:49;97891.03;;;25.28;29.61
39729;BME280;25402;42.004;23.088;2023-06-22T05:10:18;97901.06;;;25.54;29.37
39729;BME280;25402;42.004;23.088;2023-06-22T05:12:46;97893.59;;;25.50;29.44
39729;BME280;25402;42.004;23.088;2023-06-22T05:15:13;97871.69;;;25.43;29.57
39729;BME280;25402;42.004;23.088;2023-06-22T05:17:40;97893.31;;;25.56;29.73
39729;BME280;25402;42.004;23.088;2023-06-22T05:20:10;97879.47;;;25.61;29.79
39729;BME280;25402;42.004;23.088;2023-06-22T05:22:38;97886.41;;;25.89;29.50
39729;BME280;25402;42.004;23.088;2023-06-22T05:25:07;97891.13;;;26.04;29.10
39729;BME280;25402;42.004;23.088;2023-06-22T05:27:34;97880.00;;;26.24;28.94
39729;BME280;25402;42.004;23.088;2023-06-22T05:30:06;97865.31;;;26.39;28.72
39729;BME280;25402;42.004;23.088;2023-06-22T05:32:33;97885.72;;;26.79;28.27
39729;BME280;25402;42.004;23.088;2023-06-22T05:35:01;97882.88;;;26.99;27.62
39729;BME280;25402;42.004;23.088;2023-06-22T05:37:30;97877.50;;;27.13;27.46
39729;BME280;25402;42.004;23.088;2023-06-22T05:39:57;97885.16;;;27.41;27.51
39729;BME280;25402;42.004;23.088;2023-06-22T05:42:24;97866.28;;;27.38;27.47
39729;BME280;25402;42.004;23.088;2023-06-22T05:44:52;97890.59;;;27.56;27.33
39729;BME280;25402;42.004;23.088;2023-06-22T05:47:19;97885.22;;;27.75;26.61
39729;BME280;25402;42.004;23.088;2023-06-22T05:49:48;97890.63;;;27.90;26.80
39729;BME280;25402;42.004;23.088;2023-06-22T05:52:17;97892.91;;;28.17;26.62
39729;BME280;25402;42.004;23.088;2023-06-22T05:54:45;97887.84;;;28.24;26.32
39729;BME280;25402;42.004;23.088;2023-06-22T05:57:12;97892.09;;;28.46;25.89
39729;BME280;25402;42.004;23.088;2023-06-22T05:59:39;97875.69;;;28.44;25.53
39729;BME280;25402;42.004;23.088;2023-06-22T06:02:06;97861.84;;;28.39;25.45
39729;BME280;25402;42.004;23.088;2023-06-22T06:04:33;97879.22;;;28.50;25.52
39729;BME280;25402;42.004;23.088;2023-06-22T06:07:01;97876.69;;;28.53;25.94
39729;BME280;25402;42.004;23.088;2023-06-22T06:09:28;97878.50;;;28.68;24.72
39729;BME280;25402;42.004;23.088;2023-06-22T06:11:56;97877.03;;;28.76;25.15
39729;BME280;25402;42.004;23.088;2023-06-22T06:14:23;97835.63;;;28.69;24.00
39729;BME280;25402;42.004;23.088;2023-06-22T06:16:50;97851.16;;;28.75;24.50
39729;BME280;25402;42.004;23.088;2023-06-22T06:19:17;97874.66;;;28.88;24.31
39729;BME280;25402;42.004;23.088;2023-06-22T06:21:44;97870.22;;;29.05;24.22
39729;BME280;25402;42.004;23.088;2023-06-22T06:24:11;97880.19;;;29.12;24.26
39729;BME280;25402;42.004;23.088;2023-06-22T06:26:39;97875.09;;;29.19;23.50
39729;BME280;25402;42.004;23.088;2023-06-22T06:29:07;97871.41;;;29.23;23.63
39729;BME280;25402;42.004;23.088;2023-06-22T06:31:34;97868.47;;;29.15;23.80
39729;BME280;25402;42.004;23.088;2023-06-22T06:34:01;97869.63;;;29.08;24.33
39729;BME280;25402;42.004;23.088;2023-06-22T06:36:29;97865.53;;;29.25;23.77
39729;BME280;25402;42.004;23.088;2023-06-22T06:38:55;97870.16;;;29.11;24.04
39729;BME280;25402;42.004;23.088;2023-06-22T06:41:23;97853.00;;;29.03;24.45
39729;BME280;25402;42.004;23.088;2023-06-22T06:43:50;97850.19;;;29.27;24.30
39729;BME280;25402;42.004;23.088;2023-06-22T06:46:18;97862.59;;;29.35;24.27
39729;BME280;25402;42.004;23.088;2023-06-22T06:48:47;97862.06;;;29.52;23.60
39729;BME280;25402;42.004;23.088;2023-06-22T06:51:15;97869.16;;;29.63;23.83
39729;BME280;25402;42.004;23.088;2023-06-22T06:53:42;97870.75;;;29.69;23.94
39729;BME280;25402;42.004;23.088;2023-06-22T06:56:09;97869.84;;;29.73;23.70
39729;BME280;25402;42.004;23.088;2023-06-22T06:58:38;97857.72;;;29.97;23.54
39729;BME280;25402;42.004;23.088;2023-06-22T07:01:05;97845.19;;;29.94;23.00
39729;BME280;25402;42.004;23.088;2023-06-22T07:03:34;97848.44;;;30.01;22.68
39729;BME280;25402;42.004;23.088;2023-06-22T07:06:02;97854.84;;;30.02;22.50
39729;BME280;25402;42.004;23.088;2023-06-22T07:08:36;97815.25;;;30.00;22.12
39729;BME280;25402;42.004;23.088;2023-06-22T07:11:06;97843.13;;;30.19;21.84
39729;BME280;25402;42.004;23.088;2023-06-22T07:13:33;97852.03;;;30.21;22.02
39729;BME280;25402;42.004;23.088;2023-06-22T07:16:00;97844.03;;;30.14;22.48
39729;BME280;25402;42.004;23.088;2023-06-22T07:18:28;97846.75;;;30.19;22.21
39729;BME280;25402;42.004;23.088;2023-06-22T07:20:57;97829.50;;;30.31;22.05
39729;BME280;25402;42.004;23.088;2023-06-22T07:23:25;97839.00;;;30.43;20.96
39729;BME280;25402;42.004;23.088;2023-06-22T07:25:52;97845.88;;;30.51;20.79
39729;BME280;25402;42.004;23.088;2023-06-22T07:28:19;97834.06;;;30.54;20.18
39729;BME280;25402;42.004;23.088;2023-06-22T07:30:46;97836.16;;;30.62;19.77
39729;BME280;25402;42.004;23.088;2023-06-22T07:33:13;97826.84;;;30.67;20.76
39729;BME280;25402;42.004;23.088;2023-06-22T07:35:40;97820.63;;;30.56;20.11
39729;BME280;25402;42.004;23.088;2023-06-22T07:38:08;97827.03;;;30.70;19.72
39729;BME280;25402;42.004;23.088;2023-06-22T07:40:36;97825.59;;;30.59;21.48
39729;BME280;25402;42.004;23.088;2023-06-22T07:43:03;97826.81;;;30.39;21.92
39729;BME280;25402;42.004;23.088;2023-06-22T07:45:30;97816.16;;;30.14;22.89
39729;BME280;25402;42.004;23.088;2023-06-22T07:47:58;97824.22;;;30.29;21.63
39729;BME280;25402;42.004;23.088;2023-06-22T07:50:25;97791.34;;;30.13;21.78
39729;BME280;25402;42.004;23.088;2023-06-22T07:52:52;97817.41;;;30.35;21.58
39729;BME280;25402;42.004;23.088;2023-06-22T07:55:21;97809.34;;;30.34;21.90
39729;BME280;25402;42.004;23.088;2023-06-22T07:57:49;97811.94;;;30.44;21.50
39729;BME280;25402;42.004;23.088;2023-06-22T08:00:17;97809.66;;;30.32;22.23
39729;BME280;25402;42.004;23.088;2023-06-22T08:02:47;97799.88;;;29.89;22.69
39729;BME280;25402;42.004;23.088;2023-06-22T08:05:15;97805.97;;;29.91;22.48
39729;BME280;25402;42.004;23.088;2023-06-22T08:07:43;97782.88;;;29.71;22.95
39729;BME280;25402;42.004;23.088;2023-06-22T08:10:10;97794.06;;;29.85;23.34
39729;BME280;25402;42.004;23.088;2023-06-22T08:12:39;97790.84;;;29.78;22.58
39729;BME280;25402;42.004;23.088;2023-06-22T08:15:07;97782.91;;;29.85;22.29
39729;BME280;25402;42.004;23.088;2023-06-22T08:17:36;97777.13;;;29.82;22.35
39729;BME280;25402;42.004;23.088;2023-06-22T08:20:04;97780.81;;;29.77;23.16
39729;BME280;25402;42.004;23.088;2023-06-22T08:22:35;97784.81;;;29.38;23.92
39729;BME280;25402;42.004;23.088;2023-06-22T08:25:02;97779.06;;;29.30;24.29
39729;BME280;25402;42.004;23.088;2023-06-22T08:27:29;97781.03;;;29.29;22.99
39729;BME280;25402;42.004;23.088;2023-06-22T08:29:59;97794.13;;;29.48;24.06
39729;BME280;25402;42.004;23.088;2023-06-22T08:32:26;97795.06;;;29.43;23.51
39729;BME280;25402;42.004;23.088;2023-06-22T08:34:54;97775.84;;;29.41;23.62
39729;BME280;25402;42.004;23.088;2023-06-22T08:37:22;97785.38;;;29.54;23.71
39729;BME280;25402;42.004;23.088;2023-06-22T08:39:58;97781.22;;;29.70;23.25
39729;BME280;25402;42.004;23.088;2023-06-22T08:42:26;97776.28;;;29.81;23.47
39729;BME280;25402;42.004;23.088;2023-06-22T08:44:53;97771.88;;;29.94;22.88
39729;BME280;25402;42.004;23.088;2023-06-22T08:47:22;97766.16;;;29.71;23.82
39729;BME280;25402;42.004;23.088;2023-06-22T08:49:50;97771.75;;;29.85;24.03
39729;BME280;25402;42.004;23.088;2023-06-22T08:52:17;97767.97;;;29.62;24.32
39729;BME280;25402;42.004;23.088;2023-06-22T08:54:45;97748.81;;;29.04;25.19
39729;BME280;25402;42.004;23.088;2023-06-22T08:57:12;97746.41;;;29.17;25.00
39729;BME280;25402;42.004;23.088;2023-06-22T08:59:39;97748.38;;;29.16;24.83
39729;BME280;25402;42.004;23.088;2023-06-22T09:02:06;97740.00;;;29.35;24.80
39729;BME280;25402;42.004;23.088;2023-06-22T09:04:38;97750.13;;;29.63;24.97
39729;BME280;25402;42.004;23.088;2023-06-22T09:07:05;97729.78;;;29.76;24.18
39729;BME280;25402;42.004;23.088;2023-06-22T09:09:33;97734.91;;;30.02;24.11
39729;BME280;25402;42.004;23.088;2023-06-22T09:12:00;97719.72;;;30.08;23.86
39729;BME280;25402;42.004;23.088;2023-06-22T09:14:28;97721.38;;;30.23;23.34
39729;BME280;25402;42.004;23.088;2023-06-22T09:16:56;97722.41;;;30.27;23.30
39729;BME280;25402;42.004;23.088;2023-06-22T09:19:25;97727.69;;;30.56;23.83
39729;BME280;25402;42.004;23.088;2023-06-22T09:21:54;97719.47;;;30.73;23.46
39729;BME280;25402;42.004;23.088;2023-06-22T09:24:22;97729.47;;;30.88;23.43
39729;BME280;25402;42.004;23.088;2023-06-22T09:26:49;97703.56;;;30.73;23.25
39729;BME280;25402;42.004;23.088;2023-06-22T09:29:17;97701.31;;;30.62;23.42
39729;BME280;25402;42.004;23.088;2023-06-22T09:31:44;97719.97;;;30.53;24.37
39729;BME280;25402;42.004;23.088;2023-06-22T09:34:11;97712.00;;;30.32;24.09
39729;BME280;25402;42.004;23.088;2023-06-22T09:36:38;97722.41;;;30.40;24.12
39729;BME280;25402;42.004;23.088;2023-06-22T09:39:15;97725.06;;;30.73;23.74
39729;BME280;25402;42.004;23.088;2023-06-22T09:41:42;97720.59;;;30.99;23.66
39729;BME280;25402;42.004;23.088;2023-06-22T09:44:09;97725.09;;;31.09;23.61
39729;BME280;25402;42.004;23.088;2023-06-22T09:46:36;97709.81;;;31.29;23.36
39729;BME280;25402;42.004;23.088;2023-06-22T09:49:03;97717.81;;;31.44;23.16
39729;BME280;25402;42.004;23.088;2023-06-22T09:51:32;97721.88;;;31.60;23.05
39729;BME280;25402;42.004;23.088;2023-06-22T09:53:58;97710.72;;;31.69;22.81
39729;BME280;25402;42.004;23.088;2023-06-22T09:56:27;97715.56;;;31.77;22.54
39729;BME280;25402;42.004;23.088;2023-06-22T09:58:57;97700.22;;;31.74;22.57
39729;BME280;25402;42.004;23.088;2023-06-22T10:01:26;97709.72;;;31.96;22.59
39729;BME280;25402;42.004;23.088;2023-06-22T10:03:53;97697.94;;;32.07;22.78
39729;BME280;25402;42.004;23.088;2023-06-22T10:06:23;97693.72;;;32.27;22.38
39729;BME280;25402;42.004;23.088;2023-06-22T10:08:51;97686.38;;;32.40;22.19
39729;BME280;25402;42.004;23.088;2023-06-22T10:11:20;97688.38;;;32.57;22.30
39729;BME280;25402;42.004;23.088;2023-06-22T10:13:54;97680.63;;;32.62;22.26
39729;BME280;25402;42.004;23.088;2023-06-22T10:16:24;97688.91;;;32.84;21.55
39729;BME280;25402;42.004;23.088;2023-06-22T10:18:52;97682.66;;;32.96;21.93
39729;BME280;25402;42.004;23.088;2023-06-22T10:21:19;97671.63;;;33.08;22.07
39729;BME280;25402;42.004;23.088;2023-06-22T10:23:46;97674.25;;;32.96;21.05
39729;BME280;25402;42.004;23.088;2023-06-22T10:26:12;97675.75;;;33.02;20.88
39729;BME280;25402;42.004;23.088;2023-06-22T10:28:39;97641.13;;;32.90;20.34
39729;BME280;25402;42.004;23.088;2023-06-22T10:31:10;97653.78;;;32.61;20.60
39729;BME280;25402;42.004;23.088;2023-06-22T10:33:37;97645.19;;;32.23;21.54
39729;BME280;25402;42.004;23.088;2023-06-22T10:36:07;97650.19;;;32.04;22.12
39729;BME280;25402;42.004;23.088;2023-06-22T10:38:33;97647.34;;;31.87;22.22
39729;BME280;25402;42.004;23.088;2023-06-22T10:41:00;97644.94;;;31.71;22.33
39729;BME280;25402;42.004;23.088;2023-06-22T10:43:28;97633.84;;;31.89;22.50
39729;BME280;25402;42.004;23.088;2023-06-22T10:45:55;97649.94;;;32.23;21.89
39729;BME280;25402;42.004;23.088;2023-06-22T10:48:23;97632.75;;;32.15;21.46
39729;BME280;25402;42.004;23.088;2023-06-22T10:50:50;97642.09;;;31.94;22.19
39729;BME280;25402;42.004;23.088;2023-06-22T10:53:18;97641.63;;;32.00;21.87
39729;BME280;25402;42.004;23.088;2023-06-22T10:55:45;97636.72;;;32.14;21.81
39729;BME280;25402;42.004;23.088;2023-06-22T10:58:12;97637.06;;;32.22;21.72
39729;BME280;25402;42.004;23.088;2023-06-22T11:00:39;97633.66;;;32.33;22.17
39729;BME280;25402;42.004;23.088;2023-06-22T11:03:06;97627.25;;;32.59;22.08
39729;BME280;25402;42.004;23.088;2023-06-22T11:05:34;97616.41;;;32.74;21.71
39729;BME280;25402;42.004;23.088;2023-06-22T11:08:01;97614.28;;;32.80;21.48
39729;BME280;25402;42.004;23.088;2023-06-22T11:10:28;97626.94;;;32.77;20.85
39729;BME280;25402;42.004;23.088;2023-06-22T11:12:55;97618.88;;;32.76;20.65
39729;BME280;25402;42.004;23.088;2023-06-22T11:15:23;97608.81;;;33.09;20.01
39729;BME280;25402;42.004;23.088;2023-06-22T11:17:50;97602.19;;;33.31;19.81
39729;BME280;25402;42.004;23.088;2023-06-22T11:20:17;97607.09;;;33.43;19.63
39729;BME280;25402;42.004;23.088;2023-06-22T11:22:46;97616.84;;;33.28;19.02
39729;BME280;25402;42.004;23.088;2023-06-22T11:25:13;97601.03;;;33.24;18.90
39729;BME280;25402;42.004;23.088;2023-06-22T11:27:40;97613.94;;;32.99;19.48
39729;BME280;25402;42.004;23.088;2023-06-22T11:30:08;97605.03;;;32.54;19.64
39729;BME280;25402;42.004;23.088;2023-06-22T11:32:36;97593.66;;;32.41;19.99
39729;BME280;25402;42.004;23.088;2023-06-22T11:35:04;97602.91;;;32.85;19.69
39729;BME280;25402;42.004;23.088;2023-06-22T11:37:31;97594.16;;;32.95;20.04
39729;BME280;25402;42.004;23.088;2023-06-22T11:40:00;97587.56;;;33.17;19.45
39729;BME280;25402;42.004;23.088;2023-06-22T11:42:28;97585.34;;;33.31;19.69
39729;BME280;25402;42.004;23.088;2023-06-22T11:44:55;97570.19;;;33.24;19.35
39729;BME280;25402;42.004;23.088;2023-06-22T11:47:24;97590.44;;;33.38;19.12
39729;BME280;25402;42.004;23.088;2023-06-22T11:49:51;97583.97;;;33.46;18.84
39729;BME280;25402;42.004;23.088;2023-06-22T11:52:18;97578.06;;;33.39;18.95
39729;BME280;25402;42.004;23.088;2023-06-22T11:54:45;97586.13;;;33.40;19.13
39729;BME280;25402;42.004;23.088;2023-06-22T11:57:14;97593.66;;;32.93;19.34
39729;BME280;25402;42.004;23.088;2023-06-22T11:59:41;97586.59;;;32.70;19.41
39729;BME280;25402;42.004;23.088;2023-06-22T12:02:08;97563.97;;;32.92;19.55
39729;BME280;25402;42.004;23.088;2023-06-22T12:04:40;97583.94;;;32.91;19.48
39729;BME280;25402;42.004;23.088;2023-06-22T12:07:24;97554.28;;;32.64;19.97
39729;BME280;25402;42.004;23.088;2023-06-22T12:09:55;97565.03;;;32.70;19.54
39729;BME280;25402;42.004;23.088;2023-06-22T12:12:24;97580.16;;;32.78;19.95
39729;BME280;25402;42.004;23.088;2023-06-22T12:14:51;97557.38;;;33.14;19.22
39729;BME280;25402;42.004;23.088;2023-06-22T12:17:18;97579.97;;;33.00;19.60
39729;BME280;25402;42.004;23.088;2023-06-22T12:19:45;97566.47;;;32.50;20.14
39729;BME280;25402;42.004;23.088;2023-06-22T12:22:12;97553.66;;;32.67;20.60
39729;BME280;25402;42.004;23.088;2023-06-22T12:24:38;97551.34;;;32.86;20.37
39729;BME280;25402;42.004;23.088;2023-06-22T12:27:06;97548.66;;;33.15;19.52
39729;BME280;25402;42.004;23.088;2023-06-22T12:29:34;97528.38;;;33.01;20.03
39729;BME280;25402;42.004;23.088;2023-06-22T12:32:01;97523.34;;;32.52;20.39
39729;BME280;25402;42.004;23.088;2023-06-22T12:34:28;97533.53;;;32.82;20.25
39729;BME280;25402;42.004;23.088;2023-06-22T12:36:55;97539.09;;;32.99;19.39
39729;BME280;25402;42.004;23.088;2023-06-22T12:39:22;97533.34;;;32.96;19.71
39729;BME280;25402;42.004;23.088;2023-06-22T12:41:49;97531.50;;;33.08;20.37
39729;BME280;25402;42.004;23.088;2023-06-22T12:44:17;97507.94;;;33.01;19.82
39729;BME280;25402;42.004;23.088;2023-06-22T12:46:48;97534.53;;;32.86;20.22
39729;BME280;25402;42.004;23.088;2023-06-22T12:49:15;97519.22;;;32.66;20.36
39729;BME280;25402;42.004;23.088;2023-06-22T12:51:43;97520.06;;;32.41;20.03
39729;BME280;25402;42.004;23.088;2023-06-22T12:54:11;97509.84;;;32.71;19.69
39729;BME280;25402;42.004;23.088;2023-06-22T12:56:38;97512.41;;;32.93;19.86
39729;BME280;25402;42.004;23.088;2023-06-22T12:59:05;97511.91;;;32.91;19.94
39729;BME280;25402;42.004;23.088;2023-06-22T13:01:32;97505.72;;;33.24;19.70
39729;BME280;25402;42.004;23.088;2023-06-22T13:04:01;97496.16;;;33.25;20.23
39729;BME280;25402;42.004;23.088;2023-06-22T13:06:28;97483.44;;;33.36;19.36
39729;BME280;25402;42.004;23.088;2023-06-22T13:08:57;97492.88;;;33.23;19.76
39729;BME280;25402;42.004;23.088;2023-06-22T13:11:25;97492.31;;;32.91;20.10
39729;BME280;25402;42.004;23.088;2023-06-22T13:13:52;97494.25;;;33.16;20.13
39729;BME280;25402;42.004;23.088;2023-06-22T13:16:19;97488.16;;;33.14;20.16
39729;BME280;25402;42.004;23.088;2023-06-22T13:18:46;97475.63;;;33.12;20.24
39729;BME280;25402;42.004;23.088;2023-06-22T13:21:14;97488.22;;;32.80;20.22
39729;BME280;25402;42.004;23.088;2023-06-22T13:23:41;97488.88;;;32.60;20.34
39729;BME280;25402;42.004;23.088;2023-06-22T13:26:08;97487.94;;;32.38;20.44
39729;BME280;25402;42.004;23.088;2023-06-22T13:28:35;97497.16;;;32.47;20.74
39729;BME280;25402;42.004;23.088;2023-06-22T13:31:02;97504.22;;;32.54;20.93
39729;BME280;25402;42.004;23.088;2023-06-22T13:33:29;97489.72;;;32.17;21.22
39729;BME280;25402;42.004;23.088;2023-06-22T13:35:56;97514.78;;;32.39;20.66
39729;BME280;25402;42.004;23.088;2023-06-22T13:38:24;97506.56;;;32.26;21.24
39729;BME280;25402;42.004;23.088;2023-06-22T13:40:54;97495.19;;;32.22;20.68
39729;BME280;25402;42.004;23.088;2023-06-22T13:43:23;97521.91;;;31.71;21.65
39729;BME280;25402;42.004;23.088;2023-06-22T13:45:50;97525.81;;;31.22;21.62